Time;durP1;ratioP1;P1;durP2;ratioP2;P2;SDS_P1;SDS_P2;PMS_P1;PMS_P2;Temp;Humidity;BMP_temperature;BMP_pressure;BME280_temperature;BME280_humidity;BME280_pressure;Samples;Min_cycle;Max_cycle;Signal;HPM_P1;HPM_P2
2022/07/10 00:01:23;;;;;;;4.10;2.80;;;;;;;20.86;100.00;97916.84;5014645;28;20631;-66
2022/07/10 00:03:49;;;;;;;4.80;2.83;;;;;;;20.80;100.00;97925.44;5017835;28;20209;-66
2022/07/10 00:06:15;;;;;;;2.85;2.65;;;;;;;20.79;100.00;97929.06;5021784;28;20204;-66
2022/07/10 00:08:42;;;;;;;6.40;3.00;;;;;;;20.92;100.00;97929.31;5021729;28;20343;-66
2022/07/10 00:11:08;;;;;;;4.03;2.78;;;;;;;20.86;100.00;97930.00;5012919;28;20595;-65
2022/07/10 00:13:34;;;;;;;3.10;2.90;;;;;;;20.85;100.00;97925.69;5023633;28;20619;-66
2022/07/10 00:16:01;;;;;;;4.47;2.83;;;;;;;20.90;92.11;97926.84;5023324;28;20197;-66
2022/07/10 00:18:30;;;;;;;2.85;2.60;;;;;;;21.07;90.05;97930.94;5022225;28;20186;-66
2022/07/10 00:20:56;;;;;;;3.42;3.13;;;;;;;21.09;93.34;97942.06;5023930;28;20182;-66
2022/07/10 00:23:21;;;;;;;3.05;2.72;;;;;;;21.06;97.43;97931.09;5016682;28;20189;-66
2022/07/10 00:25:47;;;;;;;3.65;2.92;;;;;;;21.11;92.99;97926.94;5018668;28;20696;-66
2022/07/10 00:28:12;;;;;;;2.97;2.78;;;;;;;21.04;93.50;97923.38;5022812;28;20186;-66
2022/07/10 00:30:38;;;;;;;6.28;2.65;;;;;;;21.20;87.90;97922.38;5011125;28;20182;-66
2022/07/10 00:33:04;;;;;;;2.75;2.55;;;;;;;21.22;88.70;97921.19;5012928;28;20186;-66
2022/07/10 00:35:30;;;;;;;3.10;2.90;;;;;;;21.25;89.72;97910.31;5021669;28;20241;-65
2022/07/10 00:37:56;;;;;;;3.20;3.00;;;;;;;21.35;86.37;97921.38;5028099;28;20273;-66
2022/07/10 00:40:21;;;;;;;2.70;2.60;;;;;;;21.33;86.21;97926.00;5019447;28;20219;-66
2022/07/10 00:42:47;;;;;;;3.10;2.90;;;;;;;21.33;86.20;97918.09;5010955;28;20183;-66
2022/07/10 00:45:12;;;;;;;4.55;3.17;;;;;;;21.34;84.92;97913.66;5016232;28;20185;-65
2022/07/10 00:47:38;;;;;;;3.63;2.53;;;;;;;21.41;84.93;97915.38;5018867;28;20194;-66
2022/07/10 00:50:06;;;;;;;3.05;2.80;;;;;;;21.45;84.14;97906.09;5019397;28;20678;-66
2022/07/10 00:52:35;;;;;;;2.30;2.20;;;;;;;21.44;85.31;97908.94;5025797;28;20221;-66
2022/07/10 00:55:01;;;;;;;3.03;2.83;;;;;;;21.36;87.58;97896.69;5016484;28;20192;-66
2022/07/10 00:57:27;;;;;;;3.10;2.90;;;;;;;21.27;90.18;97899.59;5010781;28;20185;-66
2022/07/10 00:59:53;;;;;;;4.22;2.20;;;;;;;21.30;85.94;97894.78;5022350;28;20591;-66
2022/07/10 01:02:19;;;;;;;3.53;3.05;;;;;;;21.22;90.31;97896.72;5012062;28;20186;-65
2022/07/10 01:04:44;;;;;;;2.72;2.63;;;;;;;21.21;86.49;97890.63;5014210;28;20194;-66
2022/07/10 01:07:10;;;;;;;2.92;2.63;;;;;;;21.32;86.30;97894.63;5017183;28;20194;-66
2022/07/10 01:09:36;;;;;;;2.65;2.42;;;;;;;21.29;85.50;97887.06;5022023;28;20188;-65
2022/07/10 01:12:04;;;;;;;4.15;2.33;;;;;;;21.03;91.42;97884.13;5016041;28;20202;-66
2022/07/10 01:14:30;;;;;;;3.25;2.95;;;;;;;20.98;91.31;97889.13;5015601;28;20320;-65
2022/07/10 01:16:59;;;;;;;2.78;2.58;;;;;;;21.04;87.54;97880.50;5016369;28;20213;-65
2022/07/10 01:19:25;;;;;;;2.90;2.60;;;;;;;21.07;85.93;97880.94;5015850;28;20190;-65
2022/07/10 01:21:51;;;;;;;5.15;3.03;;;;;;;21.08;86.15;97876.47;5015922;28;20266;-65
2022/07/10 01:24:16;;;;;;;3.85;2.80;;;;;;;21.13;86.36;97879.38;5016785;28;20186;-65
2022/07/10 01:26:42;;;;;;;3.10;2.90;;;;;;;21.15;84.77;97877.41;5015505;28;20552;-65
2022/07/10 01:29:09;;;;;;;3.55;2.85;;;;;;;21.12;89.22;97868.06;5017766;28;20185;-65
2022/07/10 01:31:35;;;;;;;4.65;2.90;;;;;;;21.12;85.12;97872.50;5020655;28;20218;-65
2022/07/10 01:34:04;;;;;;;4.60;2.97;;;;;;;21.18;85.57;97862.06;5026668;28;20216;-66
2022/07/10 01:36:30;;;;;;;3.25;2.95;;;;;;;21.16;89.44;97877.19;5019480;28;20182;-65
2022/07/10 01:38:56;;;;;;;3.08;2.75;;;;;;;21.14;86.26;97879.19;5021654;28;20208;-65
2022/07/10 01:41:22;;;;;;;3.17;2.97;;;;;;;21.13;88.42;97867.06;5018789;28;20190;-65
2022/07/10 01:43:48;;;;;;;3.30;3.10;;;;;;;20.96;93.21;97868.25;5016099;28;20196;-65
2022/07/10 01:46:14;;;;;;;3.38;3.10;;;;;;;20.92;94.48;97872.22;5001178;28;20189;-65
2022/07/10 01:48:39;;;;;;;4.13;3.30;;;;;;;20.79;95.01;97865.94;5016151;28;20182;-65
2022/07/10 01:51:06;;;;;;;4.55;2.85;;;;;;;20.67;96.21;97862.97;5019009;28;20599;-65
2022/07/10 01:53:32;;;;;;;3.47;2.92;;;;;;;20.52;97.11;97861.34;5013555;28;20623;-65
2022/07/10 01:55:59;;;;;;;3.22;3.03;;;;;;;20.56;98.16;97859.94;5019349;28;20285;-65
2022/07/10 01:58:24;;;;;;;4.28;3.08;;;;;;;20.41;99.45;97867.81;5018784;28;20190;-65
2022/07/10 02:00:49;;;;;;;3.92;3.63;;;;;;;20.29;100.00;97855.31;5016748;28;20183;-65
2022/07/10 02:05:59;;;;;;;4.70;3.55;;;;;;;20.25;100.00;97849.59;5009854;28;20285;-65
2022/07/10 02:08:24;;;;;;;3.60;3.40;;;;;;;20.26;100.00;97845.16;4995235;28;20687;-65
2022/07/10 02:10:50;;;;;;;3.88;3.53;;;;;;;20.25;100.00;97854.88;4997037;28;20493;-65
2022/07/10 02:13:19;;;;;;;3.60;3.30;;;;;;;20.25;100.00;97838.28;5006974;28;20186;-65
2022/07/10 02:15:45;;;;;;;3.58;3.30;;;;;;;20.29;100.00;97839.56;5010268;28;20189;-67
2022/07/10 02:18:11;;;;;;;5.90;3.60;;;;;;;20.29;100.00;97840.34;5021708;28;20181;-66
2022/07/10 02:20:36;;;;;;;5.07;3.35;;;;;;;20.15;100.00;97845.59;5014708;28;20231;-65
2022/07/10 02:23:02;;;;;;;5.70;3.58;;;;;;;20.16;100.00;97853.28;5016609;28;20170;-65
2022/07/10 02:25:27;;;;;;;3.78;3.15;;;;;;;20.07;100.00;97850.91;5020554;28;20560;-65
2022/07/10 02:27:53;;;;;;;3.30;3.10;;;;;;;20.12;100.00;97848.56;5018871;28;20173;-65
2022/07/10 02:30:18;;;;;;;3.72;3.28;;;;;;;20.01;100.00;97851.59;5017646;28;20189;-65
2022/07/10 02:32:44;;;;;;;3.63;3.33;;;;;;;19.84;100.00;97852.72;5021023;28;20189;-65
2022/07/10 02:35:09;;;;;;;3.97;3.58;;;;;;;19.85;100.00;97849.94;5025900;28;20627;-65
2022/07/10 02:37:35;;;;;;;3.97;3.67;;;;;;;19.72;100.00;97859.38;5014976;28;20182;-65
2022/07/10 02:40:00;;;;;;;4.53;2.88;;;;;;;19.67;100.00;97861.72;5022944;28;20611;-65
2022/07/10 02:42:26;;;;;;;3.42;3.10;;;;;;;19.80;99.54;97856.69;5019288;28;20201;-66
2022/07/10 02:44:51;;;;;;;3.40;3.10;;;;;;;19.92;100.00;97860.53;5025413;28;20178;-65
2022/07/10 02:47:17;;;;;;;5.72;3.10;;;;;;;19.77;100.00;97862.28;5011581;28;20313;-65
2022/07/10 02:49:43;;;;;;;3.10;2.80;;;;;;;19.79;99.21;97860.31;5001468;28;20190;-65
2022/07/10 02:52:08;;;;;;;2.97;2.78;;;;;;;19.95;97.08;97857.56;4999933;28;20237;-66
2022/07/10 02:54:34;;;;;;;4.38;3.40;;;;;;;19.99;98.33;97864.09;5023515;28;20293;-65
2022/07/10 02:56:59;;;;;;;5.40;3.13;;;;;;;19.98;96.81;97860.63;5020166;28;20260;-65
2022/07/10 02:59:25;;;;;;;3.95;3.10;;;;;;;20.09;96.53;97873.38;5017968;28;20627;-66
2022/07/10 03:01:50;;;;;;;3.60;3.28;;;;;;;20.12;96.42;97861.72;5012315;28;20201;-65
2022/07/10 03:04:15;;;;;;;4.45;3.05;;;;;;;19.99;100.00;97866.72;5020407;28;20182;-65
2022/07/10 03:06:41;;;;;;;2.92;2.78;;;;;;;20.16;95.17;97863.78;5012850;28;20192;-66
2022/07/10 03:09:06;;;;;;;3.42;3.00;;;;;;;20.21;94.75;97871.97;5017896;28;20680;-65
2022/07/10 03:11:32;;;;;;;6.13;3.08;;;;;;;20.28;94.32;97883.38;5017076;28;20634;-66
2022/07/10 03:13:57;;;;;;;3.17;2.97;;;;;;;20.36;93.10;97882.50;5020276;28;20497;-65
2022/07/10 03:16:22;;;;;;;3.42;3.20;;;;;;;20.33;95.17;97875.00;5019832;28;20277;-66
2022/07/10 03:18:48;;;;;;;3.03;2.83;;;;;;;20.34;94.90;97876.63;5023048;28;20659;-65
2022/07/10 03:21:13;;;;;;;3.17;2.67;;;;;;;20.34;94.70;97881.88;5020082;28;20182;-65
2022/07/10 03:23:41;;;;;;;3.17;2.97;;;;;;;20.32;95.35;97873.34;5017314;28;20663;-65
2022/07/10 03:26:07;;;;;;;3.20;3.00;;;;;;;20.27;95.13;97867.78;5018506;28;20666;-66
2022/07/10 03:28:33;;;;;;;2.75;2.55;;;;;;;20.23;95.32;97866.53;5018099;28;20659;-65
2022/07/10 03:30:58;;;;;;;3.55;3.33;;;;;;;20.26;94.50;97867.00;5010205;28;20194;-65
2022/07/10 03:33:24;;;;;;;3.05;2.85;;;;;;;20.02;99.05;97850.59;4998778;28;20667;-65
2022/07/10 03:35:49;;;;;;;4.97;3.30;;;;;;;19.74;99.55;97841.63;5000344;28;20663;-66
2022/07/10 03:38:14;;;;;;;3.25;3.05;;;;;;;19.93;100.00;97846.41;5015395;28;20186;-66
2022/07/10 03:40:40;;;;;;;3.53;3.33;;;;;;;19.86;100.00;97845.47;5018355;28;20182;-65
2022/07/10 03:43:05;;;;;;;4.50;3.25;;;;;;;19.72;100.00;97828.69;5026039;28;20170;-66
2022/07/10 03:45:31;;;;;;;5.90;2.90;;;;;;;19.66;100.00;97828.56;5011592;28;20616;-65
2022/07/10 03:47:56;;;;;;;3.95;3.15;;;;;;;19.68;100.00;97827.41;5028450;28;20299;-65
2022/07/10 03:50:22;;;;;;;3.80;3.38;;;;;;;19.76;100.00;97829.16;5024725;28;20659;-66
2022/07/10 03:52:47;;;;;;;8.77;3.33;;;;;;;19.85;100.00;97822.84;5001655;28;20304;-66
2022/07/10 03:55:13;;;;;;;3.95;3.03;;;;;;;19.90;100.00;97823.13;4998842;28;20185;-65
2022/07/10 03:57:53;;;;;;;4.50;3.45;;;;;;;19.86;99.73;97804.28;5003576;28;20202;-65
2022/07/10 04:00:31;;;;;;;4.05;3.40;;;;;;;20.08;99.42;97823.66;5024945;28;20268;-65
2022/07/10 04:03:02;;;;;;;3.40;3.20;;;;;;;20.22;98.53;97825.50;5021360;28;20186;-66
2022/07/10 04:05:27;;;;;;;3.88;3.30;;;;;;;20.29;98.49;97823.78;5019423;28;20292;-66
2022/07/10 04:07:53;;;;;;;3.70;3.40;;;;;;;20.45;98.08;97828.88;5015751;28;20209;-65
2022/07/10 04:10:20;;;;;;;4.00;3.13;;;;;;;20.61;97.88;97820.78;5019704;28;20186;-65
2022/07/10 04:12:45;;;;;;;4.32;3.50;;;;;;;20.73;97.30;97821.97;5020150;28;20198;-65
2022/07/10 04:15:11;;;;;;;6.00;4.05;;;;;;;20.71;96.98;97816.91;5017142;28;20201;-65
2022/07/10 04:17:36;;;;;;;3.60;3.40;;;;;;;20.88;96.25;97828.03;5018844;28;20189;-66
2022/07/10 04:20:02;;;;;;;3.78;3.47;;;;;;;20.89;94.18;97829.69;5022768;28;20185;-65
2022/07/10 04:22:28;;;;;;;6.38;3.22;;;;;;;20.87;93.81;97826.41;5019093;28;20186;-65
2022/07/10 04:24:54;;;;;;;4.95;3.50;;;;;;;20.94;94.85;97827.34;5021240;28;20181;-65
2022/07/10 04:27:20;;;;;;;3.38;3.00;;;;;;;20.84;96.59;97832.03;5014766;28;20193;-65
2022/07/10 04:29:46;;;;;;;5.13;3.15;;;;;;;20.70;97.58;97827.59;5015267;28;20744;-65
2022/07/10 04:32:12;;;;;;;3.47;3.28;;;;;;;20.61;98.68;97818.16;5016524;28;20206;-65
2022/07/10 04:34:37;;;;;;;4.65;3.47;;;;;;;20.69;96.95;97831.25;5019405;28;20190;-65
2022/07/10 04:37:03;;;;;;;4.00;3.70;;;;;;;20.74;98.49;97831.50;5017011;28;21000;-66
2022/07/10 04:39:28;;;;;;;3.30;2.95;;;;;;;20.60;96.72;97837.56;5019504;28;20185;-65
2022/07/10 04:41:54;;;;;;;3.45;3.15;;;;;;;20.79;95.65;97834.38;5017325;28;20178;-65
2022/07/10 04:44:19;;;;;;;3.80;3.45;;;;;;;20.98;95.44;97828.63;5019950;28;20221;-67
2022/07/10 04:46:45;;;;;;;4.00;3.60;;;;;;;21.07;94.49;97825.69;5019432;28;20740;-65
2022/07/10 04:49:10;;;;;;;4.20;3.67;;;;;;;21.12;92.45;97847.00;5014232;28;20189;-65
2022/07/10 04:51:36;;;;;;;3.78;3.50;;;;;;;21.26;92.54;97843.50;5020774;28;20202;-66
2022/07/10 04:54:01;;;;;;;3.97;3.78;;;;;;;21.27;93.80;97844.34;5022774;28;20275;-66
2022/07/10 04:56:27;;;;;;;3.90;3.55;;;;;;;21.29;94.12;97842.34;4998674;28;20525;-66
2022/07/10 04:58:52;;;;;;;4.60;4.15;;;;;;;21.45;92.89;97847.38;4997878;28;20216;-65
2022/07/10 05:01:18;;;;;;;6.28;5.72;;;;;;;21.61;89.93;97855.03;5004513;28;20618;-66
2022/07/10 05:03:43;;;;;;;4.13;2.83;;;;;;;21.75;90.28;97855.03;5016727;28;20269;-66
2022/07/10 05:06:08;;;;;;;4.55;3.33;;;;;;;21.70;92.35;97846.88;5017984;28;20190;-65
2022/07/10 05:08:34;;;;;;;3.33;2.80;;;;;;;21.85;93.50;97852.06;5019630;28;20655;-66
2022/07/10 05:10:59;;;;;;;3.70;3.00;;;;;;;21.79;94.56;97858.09;5021890;28;20474;-65
2022/07/10 05:13:25;;;;;;;3.30;2.85;;;;;;;21.82;94.10;97849.78;5016855;28;20697;-66
2022/07/10 05:15:50;;;;;;;5.15;3.05;;;;;;;21.85;93.94;97859.97;5015543;28;20185;-64
2022/07/10 05:18:16;;;;;;;3.60;2.90;;;;;;;21.91;92.88;97864.47;4996032;28;20648;-65
2022/07/10 05:20:43;;;;;;;3.92;3.53;;;;;;;22.07;91.52;97866.84;4998122;28;20182;-65
2022/07/10 05:23:09;;;;;;;3.83;3.53;;;;;;;22.24;90.67;97870.81;5005787;28;20190;-66
2022/07/10 05:25:37;;;;;;;4.03;3.67;;;;;;;22.29;90.71;97877.19;5016691;28;20192;-66
2022/07/10 05:28:04;;;;;;;4.35;3.97;;;;;;;22.27;90.10;97865.19;5015553;28;20182;-66
2022/07/10 05:30:29;;;;;;;4.38;3.38;;;;;;;22.32;91.25;97873.34;5019278;28;20662;-66
2022/07/10 05:32:54;;;;;;;3.08;2.95;;;;;;;22.48;87.33;97878.34;5023039;28;20205;-66
2022/07/10 05:35:20;;;;;;;3.75;3.40;;;;;;;22.48;89.77;97880.97;5019587;28;20734;-66
2022/07/10 05:37:45;;;;;;;3.67;3.40;;;;;;;22.55;89.52;97873.94;5014635;28;20181;-65
2022/07/10 05:40:11;;;;;;;3.78;3.08;;;;;;;22.63;86.07;97860.59;5016255;28;20192;-66
2022/07/10 05:42:37;;;;;;;4.90;3.40;;;;;;;22.80;86.13;97873.31;5019165;28;20173;-66
2022/07/10 05:45:03;;;;;;;3.80;3.50;;;;;;;22.89;85.88;97879.25;5015085;28;20177;-65
2022/07/10 05:47:28;;;;;;;4.43;3.85;;;;;;;23.02;86.45;97880.09;5009330;28;20190;-66
2022/07/10 05:49:54;;;;;;;3.78;3.38;;;;;;;22.92;86.77;97874.38;5018509;28;20260;-65
2022/07/10 05:52:19;;;;;;;3.80;3.50;;;;;;;23.05;83.23;97881.53;5009681;28;20206;-65
2022/07/10 05:54:44;;;;;;;4.10;3.70;;;;;;;23.21;82.03;97882.06;5017089;28;20292;-68
2022/07/10 05:57:11;;;;;;;6.38;3.30;;;;;;;23.24;80.32;97870.31;5009496;28;20597;-65
2022/07/10 05:59:36;;;;;;;3.92;3.63;;;;;;;23.23;81.01;97876.56;4996641;28;20191;-65
2022/07/10 06:02:02;;;;;;;3.72;3.53;;;;;;;23.29;81.85;97871.31;4996884;28;20174;-66
2022/07/10 06:04:28;;;;;;;4.05;3.65;;;;;;;23.37;82.50;97867.69;5009044;28;20189;-65
2022/07/10 06:06:53;;;;;;;3.50;3.30;;;;;;;23.45;82.59;97865.69;5017575;28;20185;-65
2022/07/10 06:09:18;;;;;;;4.03;3.63;;;;;;;23.55;81.04;97870.59;5012776;28;20189;-66
2022/07/10 06:11:45;;;;;;;4.00;3.60;;;;;;;23.63;80.81;97872.03;5015868;28;20256;-66
2022/07/10 06:14:12;;;;;;;4.63;3.75;;;;;;;23.67;81.08;97862.69;5012194;28;20187;-65
2022/07/10 06:16:37;;;;;;;3.70;3.40;;;;;;;23.77;80.76;97878.97;5017025;28;20209;-66
2022/07/10 06:19:03;;;;;;;3.92;3.67;;;;;;;23.80;81.39;97870.66;5021237;28;20185;-66
2022/07/10 06:21:28;;;;;;;3.67;3.38;;;;;;;23.66;78.53;97851.53;5015370;28;20182;-66
2022/07/10 06:23:54;;;;;;;3.42;3.20;;;;;;;23.86;79.55;97874.31;5017276;28;20561;-66
2022/07/10 06:26:19;;;;;;;3.60;3.40;;;;;;;23.95;77.11;97869.69;5020308;28;20185;-66
2022/07/10 06:28:45;;;;;;;3.50;3.05;;;;;;;24.02;79.65;97870.50;5011608;28;21110;-66
2022/07/10 06:31:10;;;;;;;5.10;3.35;;;;;;;24.13;78.48;97864.63;5018366;28;20190;-66
2022/07/10 06:33:37;;;;;;;3.17;2.97;;;;;;;24.16;78.42;97870.31;5024650;28;20185;-66
2022/07/10 06:36:03;;;;;;;3.33;3.13;;;;;;;24.13;74.76;97861.97;5018059;28;20247;-66
2022/07/10 06:38:28;;;;;;;3.90;2.92;;;;;;;24.06;75.22;97853.25;5015989;28;20224;-65
2022/07/10 06:40:54;;;;;;;3.72;3.30;;;;;;;24.03;75.05;97857.91;5016970;28;20194;-66
2022/07/10 06:43:19;;;;;;;3.78;3.38;;;;;;;23.98;75.88;97848.13;5015802;28;20567;-66
2022/07/10 06:45:45;;;;;;;4.00;3.60;;;;;;;24.07;76.80;97862.78;5017921;28;20595;-65
2022/07/10 06:48:11;;;;;;;3.47;3.17;;;;;;;24.17;76.16;97860.56;5013111;28;20186;-66
2022/07/10 06:50:37;;;;;;;4.57;3.30;;;;;;;24.26;76.55;97860.94;5011352;28;20189;-66
2022/07/10 06:53:03;;;;;;;4.05;3.25;;;;;;;24.40;74.65;97865.22;5024691;28;20292;-65
2022/07/10 06:55:29;;;;;;;3.60;3.30;;;;;;;24.56;71.03;97859.50;5018663;28;20182;-66
2022/07/10 06:57:55;;;;;;;3.08;2.67;;;;;;;24.66;61.81;97859.91;5022384;28;20264;-66
2022/07/10 07:00:22;;;;;;;3.25;2.78;;;;;;;24.76;61.63;97865.59;5023568;28;20186;-66
2022/07/10 07:02:47;;;;;;;3.55;3.30;;;;;;;24.84;61.60;97856.63;5015768;28;20239;-66
2022/07/10 07:05:12;;;;;;;49.25;5.97;;;;;;;24.92;61.02;97854.59;5015855;28;20182;-66
2022/07/10 07:07:38;;;;;;;6.78;3.20;;;;;;;24.98;61.43;97853.75;5018063;28;20183;-66
2022/07/10 07:10:05;;;;;;;2.60;2.50;;;;;;;24.99;56.23;97855.38;5015947;28;20259;-66
2022/07/10 07:12:30;;;;;;;2.63;2.50;;;;;;;25.08;56.72;97859.38;5018902;28;20192;-66
2022/07/10 07:14:56;;;;;;;3.10;2.90;;;;;;;25.17;56.51;97859.97;5021530;28;20193;-66
2022/07/10 07:17:22;;;;;;;3.38;3.08;;;;;;;25.31;57.77;97848.34;5020188;28;20178;-66
2022/07/10 07:25:33;;;;;;;3.15;2.95;;;;;;;25.60;54.69;97847.78;5019161;28;20184;-65
2022/07/10 07:27:59;;;;;;;3.33;3.10;;;;;;;25.71;55.49;97855.84;5022516;28;20196;-65
2022/07/10 07:30:24;;;;;;;4.32;2.97;;;;;;;25.76;55.81;97858.69;5027647;28;20684;-65
2022/07/10 07:32:49;;;;;;;3.50;3.30;;;;;;;25.62;57.29;97830.66;5016218;28;20282;-65
2022/07/10 07:35:15;;;;;;;9.52;4.20;;;;;;;25.70;59.34;97859.53;5012092;28;20270;-66
2022/07/10 07:37:43;;;;;;;4.32;3.92;;;;;;;25.64;60.11;97865.69;5016672;28;20221;-66
2022/07/10 07:40:11;;;;;;;4.35;3.95;;;;;;;25.68;61.40;97869.53;5025106;28;20277;-66
2022/07/10 07:42:37;;;;;;;4.93;3.75;;;;;;;25.62;61.46;97862.44;5024822;28;20701;-66
2022/07/10 07:45:04;;;;;;;5.18;4.60;;;;;;;25.49;61.77;97856.41;4997564;28;20189;-65
2022/07/10 07:47:30;;;;;;;4.60;4.28;;;;;;;25.46;62.48;97873.53;4999451;28;20198;-68
2022/07/10 07:49:55;;;;;;;4.38;3.97;;;;;;;25.33;62.12;97875.44;5012023;28;20546;-65
2022/07/10 07:52:22;;;;;;;4.20;4.00;;;;;;;25.25;63.52;97865.09;5022262;28;20288;-66
2022/07/10 07:54:49;;;;;;;5.38;4.20;;;;;;;25.30;64.43;97867.91;5027554;28;20686;-65
2022/07/10 07:57:14;;;;;;;4.70;4.22;;;;;;;25.33;64.48;97870.13;5007767;28;20277;-66
2022/07/10 07:59:40;;;;;;;4.28;3.97;;;;;;;25.39;63.52;97872.75;5017408;28;20358;-66
2022/07/10 08:02:06;;;;;;;4.43;4.10;;;;;;;25.48;62.45;97871.47;5021996;28;20805;-65
2022/07/10 08:04:32;;;;;;;4.47;4.18;;;;;;;25.38;62.61;97865.00;5017637;28;20359;-65
2022/07/10 08:06:57;;;;;;;4.88;4.10;;;;;;;25.44;63.83;97875.59;5017754;28;20257;-66
2022/07/10 08:09:22;;;;;;;4.68;4.10;;;;;;;25.57;63.20;97880.00;5019290;28;20185;-66
2022/07/10 08:11:48;;;;;;;5.20;4.78;;;;;;;25.70;62.12;97875.44;5022973;28;20201;-66
2022/07/10 08:14:14;;;;;;;4.07;3.78;;;;;;;25.83;63.17;97880.66;5025827;28;20647;-66
2022/07/10 08:16:40;;;;;;;4.38;3.97;;;;;;;25.96;62.42;97880.59;5024647;28;20181;-66
2022/07/10 08:19:06;;;;;;;4.15;3.95;;;;;;;26.07;60.34;97882.56;5023424;28;20182;-66
2022/07/10 08:21:32;;;;;;;7.05;4.40;;;;;;;26.10;60.32;97870.72;5023784;28;20643;-66
2022/07/10 08:23:58;;;;;;;4.65;4.15;;;;;;;26.19;60.64;97885.34;5018277;28;20233;-66
2022/07/10 08:26:24;;;;;;;6.82;3.85;;;;;;;26.16;59.91;97875.16;5015895;28;20701;-66
2022/07/10 08:28:49;;;;;;;4.93;4.50;;;;;;;26.30;60.81;97876.69;5017964;28;20177;-66
2022/07/10 08:31:15;;;;;;;4.82;4.20;;;;;;;26.39;60.00;97883.31;5021656;28;20602;-66
2022/07/10 08:33:41;;;;;;;4.85;4.45;;;;;;;26.42;59.41;97891.66;5019408;28;20707;-65
2022/07/10 08:36:06;;;;;;;5.13;4.78;;;;;;;26.34;59.27;97886.63;5018584;28;20181;-65
2022/07/10 08:38:32;;;;;;;5.00;4.60;;;;;;;26.36;60.08;97887.22;5021256;28;20213;-65
2022/07/10 08:40:59;;;;;;;4.72;4.45;;;;;;;26.42;61.14;97885.56;5018372;28;20177;-65
2022/07/10 08:43:25;;;;;;;5.03;4.68;;;;;;;26.56;60.28;97885.25;5012007;28;20184;-66
2022/07/10 08:45:53;;;;;;;5.07;4.53;;;;;;;26.67;58.56;97889.84;5012571;28;20186;-67
2022/07/10 08:48:22;;;;;;;5.53;4.35;;;;;;;26.60;58.63;97886.44;5016144;28;20557;-66
2022/07/10 08:50:51;;;;;;;4.88;4.47;;;;;;;26.66;59.78;97898.81;5017924;28;20726;-65
2022/07/10 08:53:23;;;;;;;5.55;5.10;;;;;;;26.63;59.29;97888.66;5017014;28;20683;-65
2022/07/10 08:55:48;;;;;;;4.90;4.60;;;;;;;26.69;60.23;97884.31;5021337;28;20609;-67
2022/07/10 08:58:14;;;;;;;5.72;5.05;;;;;;;26.61;59.92;97892.56;5014462;28;20186;-65
2022/07/10 09:00:40;;;;;;;6.07;4.82;;;;;;;26.49;60.19;97881.84;5014857;28;20182;-65
2022/07/10 09:03:07;;;;;;;6.03;5.53;;;;;;;26.42;59.70;97883.69;5014007;28;20249;-66
2022/07/10 09:05:32;;;;;;;5.28;4.75;;;;;;;26.37;59.18;97880.88;5025457;28;20629;-65
2022/07/10 09:07:58;;;;;;;5.32;4.93;;;;;;;26.43;60.47;97880.03;5002632;28;20192;-66
2022/07/10 09:10:25;;;;;;;6.00;5.22;;;;;;;26.47;58.22;97883.06;5016293;28;20177;-65
2022/07/10 09:12:59;;;;;;;6.00;5.32;;;;;;;26.59;59.17;97884.81;5019195;28;20275;-66
2022/07/10 09:15:31;;;;;;;7.10;5.38;;;;;;;26.77;59.53;97874.22;5025000;28;20551;-66
2022/07/10 09:18:02;;;;;;;6.00;5.40;;;;;;;26.93;57.37;97892.22;5015591;28;20186;-66
2022/07/10 09:20:39;;;;;;;6.30;5.70;;;;;;;27.06;56.66;97892.09;5015374;28;20634;-65
2022/07/10 09:23:17;;;;;;;9.63;5.28;;;;;;;27.05;56.21;97900.31;5021285;28;20182;-65
2022/07/10 09:25:44;;;;;;;7.50;5.38;;;;;;;27.09;55.87;97904.13;5020503;28;20189;-65
2022/07/10 09:28:09;;;;;;;7.50;5.40;;;;;;;27.10;55.51;97903.91;5025258;28;20190;-65
2022/07/10 09:30:37;;;;;;;7.13;5.45;;;;;;;27.07;56.63;97904.34;5016042;28;20721;-65
2022/07/10 09:33:15;;;;;;;7.30;5.15;;;;;;;27.14;55.71;97905.09;5017864;28;20720;-66
2022/07/10 09:36:04;;;;;;;5.18;4.70;;;;;;;27.17;56.99;97902.00;5021375;28;20174;-66
2022/07/10 09:38:42;;;;;;;5.45;5.05;;;;;;;27.18;55.89;97900.19;5011226;28;20235;-66
2022/07/10 09:41:30;;;;;;;5.78;5.05;;;;;;;27.16;55.95;97904.88;5016602;28;20193;-66
2022/07/10 09:44:03;;;;;;;6.20;5.20;;;;;;;27.07;56.71;97907.00;5015922;28;20205;-66
2022/07/10 09:46:39;;;;;;;5.65;5.15;;;;;;;27.04;56.68;97906.63;5023705;28;20181;-66
2022/07/10 09:49:07;;;;;;;6.05;5.18;;;;;;;27.10;57.05;97908.38;5018840;28;20208;-66
2022/07/10 09:51:43;;;;;;;5.25;4.75;;;;;;;27.17;56.41;97896.69;5015236;28;20703;-66
2022/07/10 09:54:10;;;;;;;8.98;5.28;;;;;;;27.22;57.37;97890.75;5016929;28;20258;-66
2022/07/10 09:56:42;;;;;;;6.40;5.57;;;;;;;27.31;55.65;97900.84;5016600;28;20181;-66
2022/07/10 09:59:16;;;;;;;5.93;5.43;;;;;;;27.41;55.84;97898.44;5015643;28;20272;-66
2022/07/10 10:01:45;;;;;;;5.50;5.10;;;;;;;27.47;56.08;97892.22;5020141;28;20249;-66
2022/07/10 10:04:11;;;;;;;5.25;4.85;;;;;;;27.55;54.22;97889.28;5022847;28;20269;-66
2022/07/10 10:06:39;;;;;;;5.40;5.00;;;;;;;27.67;52.58;97891.97;5017400;28;20480;-66
2022/07/10 10:09:37;;;;;;;4.90;4.38;;;;;;;27.88;53.29;97894.97;5023126;28;20189;-66
2022/07/10 10:12:12;;;;;;;4.93;4.53;;;;;;;28.15;52.91;97901.53;4985645;28;20248;-66
2022/07/10 10:14:39;;;;;;;5.20;4.80;;;;;;;28.30;50.96;97895.78;5016249;28;20616;-65
2022/07/10 10:17:05;;;;;;;5.70;5.20;;;;;;;28.32;51.63;97904.34;5017919;28;20190;-66
2022/07/10 10:22:19;;;;;;;5.65;5.15;;;;;;;28.18;52.67;97900.28;5012202;28;20622;-65
2022/07/10 10:24:46;;;;;;;5.63;5.13;;;;;;;28.24;53.58;97900.19;5012436;28;20186;-65
2022/07/10 10:27:12;;;;;;;5.95;5.45;;;;;;;28.15;53.41;97901.53;5010784;28;20188;-66
2022/07/10 10:29:39;;;;;;;5.03;4.63;;;;;;;27.98;53.76;97895.25;5019730;28;20189;-65
2022/07/10 10:32:07;;;;;;;5.28;4.88;;;;;;;27.94;54.23;97878.09;5005491;28;20673;-65
2022/07/10 10:34:55;;;;;;;5.68;5.18;;;;;;;27.85;53.78;97876.81;5015422;28;20279;-65
2022/07/10 10:37:26;;;;;;;7.82;5.20;;;;;;;27.94;54.04;97888.75;5018899;28;20177;-65
2022/07/10 10:39:53;;;;;;;5.80;5.30;;;;;;;28.01;54.56;97892.16;5022170;28;20190;-65
2022/07/10 10:42:38;;;;;;;10.60;5.35;;;;;;;28.02;54.07;97885.78;5011108;28;20670;-66
2022/07/10 10:45:28;;;;;;;6.57;6.00;;;;;;;28.16;55.16;97891.72;5024921;28;20178;-66
2022/07/10 10:48:08;;;;;;;5.68;4.93;;;;;;;28.30;54.47;97888.63;5015304;28;20189;-66
2022/07/10 10:50:50;;;;;;;5.68;5.13;;;;;;;28.36;54.62;97893.03;5020677;28;20244;-67
2022/07/10 10:53:26;;;;;;;5.60;5.03;;;;;;;28.46;53.56;97887.97;5023970;28;20298;-66
2022/07/10 10:56:00;;;;;;;5.88;5.28;;;;;;;28.57;52.96;97887.16;5019547;28;20192;-66
2022/07/10 10:58:27;;;;;;;7.50;5.57;;;;;;;28.73;53.19;97889.13;5021936;28;20268;-66
2022/07/10 11:01:03;;;;;;;5.93;5.43;;;;;;;28.75;51.06;97889.69;5021654;28;20235;-66
2022/07/10 11:03:28;;;;;;;5.43;5.03;;;;;;;28.80;51.56;97884.50;5020135;28;20394;-66
2022/07/10 11:05:54;;;;;;;5.47;4.70;;;;;;;28.81;51.34;97886.09;5021748;28;21193;-66
2022/07/10 11:08:49;;;;;;;5.13;4.72;;;;;;;28.69;52.08;97887.16;5028395;28;20190;-66
2022/07/10 11:11:37;;;;;;;5.72;5.25;;;;;;;28.54;51.20;97884.97;5008207;28;20204;-68
2022/07/10 11:14:04;;;;;;;6.10;5.30;;;;;;;28.55;52.49;97883.09;5024746;28;20709;-68
2022/07/10 11:16:32;;;;;;;6.40;5.68;;;;;;;28.59;53.17;97881.59;5018452;28;20189;-65
2022/07/10 11:18:57;;;;;;;5.53;5.13;;;;;;;28.57;52.74;97879.16;5020741;28;20174;-65
2022/07/10 11:21:25;;;;;;;5.43;4.93;;;;;;;28.54;51.54;97873.50;5018164;28;20820;-66
2022/07/10 11:24:11;;;;;;;5.13;4.70;;;;;;;28.49;51.90;97871.53;5016631;28;20183;-65
2022/07/10 11:26:54;;;;;;;6.20;4.78;;;;;;;28.49;51.49;97866.22;5019535;28;20205;-66
2022/07/10 11:29:20;;;;;;;4.20;3.90;;;;;;;28.60;46.64;97861.91;5026421;28;20193;-66
2022/07/10 11:31:55;;;;;;;4.50;4.10;;;;;;;28.89;44.93;97871.63;5017663;28;20197;-66
2022/07/10 11:34:34;;;;;;;5.10;4.25;;;;;;;29.20;45.15;97864.06;5018754;28;20200;-66
2022/07/10 11:37:00;;;;;;;4.55;4.13;;;;;;;29.60;44.61;97854.22;5017719;28;20263;-66
2022/07/10 11:39:26;;;;;;;5.35;4.43;;;;;;;29.59;45.51;97852.63;5019576;28;20305;-66
2022/07/10 11:41:52;;;;;;;4.60;4.30;;;;;;;29.62;46.24;97852.13;5027111;28;20185;-67
2022/07/10 11:44:20;;;;;;;4.53;4.10;;;;;;;29.81;45.60;97852.75;5024298;28;20204;-66